sensor_id;sensor_type;location;lat;lon;timestamp;P1;durP1;ratioP1;P2;durP2;ratioP2
679;SDS011;322;48.846;9.230;2023-04-28T00:01:27;8.23;;;6.13;;
679;SDS011;322;48.846;9.230;2023-04-28T00:03:53;5.80;;;5.20;;
679;SDS011;322;48.846;9.230;2023-04-28T00:06:20;5.53;;;4.70;;
679;SDS011;322;48.846;9.230;2023-04-28T00:08:47;6.83;;;5.73;;
679;SDS011;322;48.846;9.230;2023-04-28T00:11:14;5.20;;;4.70;;
679;SDS011;322;48.846;9.230;2023-04-28T00:13:41;7.77;;;5.43;;
679;SDS011;322;48.846;9.230;2023-04-28T00:16:09;5.30;;;4.80;;
679;SDS011;322;48.846;9.230;2023-04-28T00:18:36;6.57;;;4.90;;
679;SDS011;322;48.846;9.230;2023-04-28T00:21:03;5.53;;;5.03;;
679;SDS011;322;48.846;9.230;2023-04-28T00:23:30;6.07;;;5.17;;
679;SDS011;322;48.846;9.230;2023-04-28T00:25:57;6.83;;;5.20;;
679;SDS011;322;48.846;9.230;2023-04-28T00:28:24;5.63;;;5.13;;
679;SDS011;322;48.846;9.230;2023-04-28T00:30:50;5.40;;;4.90;;
679;SDS011;322;48.846;9.230;2023-04-28T00:33:19;5.77;;;5.17;;
679;SDS011;322;48.846;9.230;2023-04-28T00:35:45;6.17;;;5.23;;
679;SDS011;322;48.846;9.230;2023-04-28T00:38:12;7.60;;;5.40;;
679;SDS011;322;48.846;9.230;2023-04-28T00:40:39;7.93;;;4.80;;
679;SDS011;322;48.846;9.230;2023-04-28T00:43:06;4.53;;;4.13;;
679;SDS011;322;48.846;9.230;2023-04-28T00:45:33;8.50;;;5.57;;
679;SDS011;322;48.846;9.230;2023-04-28T00:48:00;6.10;;;5.00;;
679;SDS011;322;48.846;9.230;2023-04-28T00:50:29;7.67;;;5.70;;
679;SDS011;322;48.846;9.230;2023-04-28T00:52:56;5.53;;;5.03;;
679;SDS011;322;48.846;9.230;2023-04-28T00:55:23;5.80;;;5.30;;
679;SDS011;322;48.846;9.230;2023-04-28T00:57:51;6.10;;;5.43;;
679;SDS011;322;48.846;9.230;2023-04-28T01:00:20;6.33;;;5.53;;
679;SDS011;322;48.846;9.230;2023-04-28T01:02:48;5.83;;;5.30;;
679;SDS011;322;48.846;9.230;2023-04-28T01:05:15;6.23;;;5.63;;
679;SDS011;322;48.846;9.230;2023-04-28T01:07:44;7.23;;;5.60;;
679;SDS011;322;48.846;9.230;2023-04-28T01:10:11;8.07;;;6.53;;
679;SDS011;322;48.846;9.230;2023-04-28T01:12:38;6.13;;;5.33;;
679;SDS011;322;48.846;9.230;2023-04-28T01:15:05;7.07;;;6.23;;
679;SDS011;322;48.846;9.230;2023-04-28T01:17:37;7.00;;;6.37;;
679;SDS011;322;48.846;9.230;2023-04-28T01:20:04;7.87;;;6.33;;
679;SDS011;322;48.846;9.230;2023-04-28T01:22:32;7.40;;;6.70;;
679;SDS011;322;48.846;9.230;2023-04-28T01:25:01;6.90;;;5.90;;
679;SDS011;322;48.846;9.230;2023-04-28T01:27:28;6.80;;;6.20;;
679;SDS011;322;48.846;9.230;2023-04-28T01:29:55;6.33;;;5.50;;
679;SDS011;322;48.846;9.230;2023-04-28T01:32:22;8.40;;;5.67;;
679;SDS011;322;48.846;9.230;2023-04-28T01:34:49;6.50;;;4.77;;
679;SDS011;322;48.846;9.230;2023-04-28T01:37:16;6.53;;;5.30;;
679;SDS011;322;48.846;9.230;2023-04-28T01:39:43;7.40;;;4.70;;
679;SDS011;322;48.846;9.230;2023-04-28T01:42:12;7.80;;;5.80;;
679;SDS011;322;48.846;9.230;2023-04-28T01:44:39;7.37;;;5.53;;
679;SDS011;322;48.846;9.230;2023-04-28T01:47:06;6.67;;;5.10;;
679;SDS011;322;48.846;9.230;2023-04-28T01:49:33;7.07;;;5.83;;
679;SDS011;322;48.846;9.230;2023-04-28T01:52:00;8.33;;;5.30;;
679;SDS011;322;48.846;9.230;2023-04-28T01:57:32;6.90;;;5.37;;
679;SDS011;322;48.846;9.230;2023-04-28T02:00:00;6.30;;;5.70;;
679;SDS011;322;48.846;9.230;2023-04-28T02:02:27;9.53;;;5.47;;
679;SDS011;322;48.846;9.230;2023-04-28T02:04:54;7.13;;;5.60;;
679;SDS011;322;48.846;9.230;2023-04-28T02:07:22;6.13;;;5.43;;
679;SDS011;322;48.846;9.230;2023-04-28T02:09:48;6.67;;;5.67;;
679;SDS011;322;48.846;9.230;2023-04-28T02:12:15;6.23;;;5.57;;
679;SDS011;322;48.846;9.230;2023-04-28T02:14:43;7.60;;;6.03;;
679;SDS011;322;48.846;9.230;2023-04-28T02:17:11;6.70;;;6.00;;
679;SDS011;322;48.846;9.230;2023-04-28T02:19:38;9.37;;;5.30;;
679;SDS011;322;48.846;9.230;2023-04-28T02:22:04;8.63;;;6.23;;
679;SDS011;322;48.846;9.230;2023-04-28T02:24:33;8.47;;;6.00;;
679;SDS011;322;48.846;9.230;2023-04-28T02:27:01;6.60;;;6.00;;
679;SDS011;322;48.846;9.230;2023-04-28T02:29:29;6.77;;;6.17;;
679;SDS011;322;48.846;9.230;2023-04-28T02:31:57;6.13;;;5.50;;
679;SDS011;322;48.846;9.230;2023-04-28T02:34:24;5.73;;;5.23;;
679;SDS011;322;48.846;9.230;2023-04-28T02:36:51;6.63;;;6.00;;
679;SDS011;322;48.846;9.230;2023-04-28T02:39:18;5.53;;;4.80;;
679;SDS011;322;48.846;9.230;2023-04-28T02:41:49;6.30;;;5.70;;
679;SDS011;322;48.846;9.230;2023-04-28T02:44:16;6.73;;;6.13;;
679;SDS011;322;48.846;9.230;2023-04-28T02:46:43;5.73;;;5.23;;
679;SDS011;322;48.846;9.230;2023-04-28T02:49:11;7.77;;;6.00;;
679;SDS011;322;48.846;9.230;2023-04-28T02:51:38;7.90;;;5.10;;
679;SDS011;322;48.846;9.230;2023-04-28T02:54:05;6.40;;;5.80;;
679;SDS011;322;48.846;9.230;2023-04-28T02:56:32;6.27;;;5.77;;
679;SDS011;322;48.846;9.230;2023-04-28T02:58:59;5.70;;;5.20;;
679;SDS011;322;48.846;9.230;2023-04-28T03:01:26;6.47;;;5.93;;
679;SDS011;322;48.846;9.230;2023-04-28T03:03:53;6.43;;;5.90;;
679;SDS011;322;48.846;9.230;2023-04-28T03:06:21;7.30;;;6.57;;
679;SDS011;322;48.846;9.230;2023-04-28T03:08:48;6.60;;;6.00;;
679;SDS011;322;48.846;9.230;2023-04-28T03:11:14;7.17;;;6.37;;
679;SDS011;322;48.846;9.230;2023-04-28T03:13:41;7.97;;;7.17;;
679;SDS011;322;48.846;9.230;2023-04-28T03:16:08;6.93;;;6.23;;
679;SDS011;322;48.846;9.230;2023-04-28T03:18:35;7.37;;;6.67;;
679;SDS011;322;48.846;9.230;2023-04-28T03:21:02;7.80;;;7.10;;
679;SDS011;322;48.846;9.230;2023-04-28T03:23:30;7.67;;;6.97;;
679;SDS011;322;48.846;9.230;2023-04-28T03:25:57;10.93;;;7.80;;
679;SDS011;322;48.846;9.230;2023-04-28T03:28:24;9.33;;;8.53;;
679;SDS011;322;48.846;9.230;2023-04-28T03:30:50;9.23;;;7.53;;
679;SDS011;322;48.846;9.230;2023-04-28T03:33:17;11.33;;;9.97;;
679;SDS011;322;48.846;9.230;2023-04-28T03:35:44;8.50;;;7.60;;
679;SDS011;322;48.846;9.230;2023-04-28T03:38:11;8.53;;;7.60;;
679;SDS011;322;48.846;9.230;2023-04-28T03:40:39;7.90;;;7.20;;
679;SDS011;322;48.846;9.230;2023-04-28T03:43:06;9.23;;;7.23;;
679;SDS011;322;48.846;9.230;2023-04-28T03:45:33;9.33;;;8.27;;
679;SDS011;322;48.846;9.230;2023-04-28T03:48:00;8.20;;;7.40;;
679;SDS011;322;48.846;9.230;2023-04-28T03:50:26;8.63;;;7.77;;
679;SDS011;322;48.846;9.230;2023-04-28T03:52:53;8.30;;;7.50;;
679;SDS011;322;48.846;9.230;2023-04-28T03:55:20;9.67;;;8.00;;
679;SDS011;322;48.846;9.230;2023-04-28T03:57:48;9.53;;;7.97;;
679;SDS011;322;48.846;9.230;2023-04-28T04:00:15;8.50;;;7.73;;
679;SDS011;322;48.846;9.230;2023-04-28T04:02:42;7.87;;;7.17;;
679;SDS011;322;48.846;9.230;2023-04-28T04:05:09;8.60;;;7.67;;
679;SDS011;322;48.846;9.230;2023-04-28T04:07:36;8.57;;;7.77;;
679;SDS011;322;48.846;9.230;2023-04-28T04:10:03;8.43;;;7.53;;
679;SDS011;322;48.846;9.230;2023-04-28T04:12:30;8.37;;;7.57;;
679;SDS011;322;48.846;9.230;2023-04-28T04:14:58;7.40;;;6.70;;
679;SDS011;322;48.846;9.230;2023-04-28T04:17:25;7.90;;;7.23;;
679;SDS011;322;48.846;9.230;2023-04-28T04:19:52;10.77;;;7.50;;
679;SDS011;322;48.846;9.230;2023-04-28T04:22:19;8.00;;;7.20;;
679;SDS011;322;48.846;9.230;2023-04-28T04:24:45;8.93;;;8.03;;
679;SDS011;322;48.846;9.230;2023-04-28T04:27:12;7.53;;;6.80;;
679;SDS011;322;48.846;9.230;2023-04-28T04:29:39;8.90;;;8.00;;
679;SDS011;322;48.846;9.230;2023-04-28T04:32:07;8.27;;;7.53;;
679;SDS011;322;48.846;9.230;2023-04-28T04:34:35;10.40;;;7.83;;
679;SDS011;322;48.846;9.230;2023-04-28T04:37:02;7.93;;;7.23;;
679;SDS011;322;48.846;9.230;2023-04-28T04:39:28;9.70;;;8.70;;
679;SDS011;322;48.846;9.230;2023-04-28T04:41:55;8.00;;;7.30;;
679;SDS011;322;48.846;9.230;2023-04-28T04:44:22;8.80;;;8.00;;
679;SDS011;322;48.846;9.230;2023-04-28T04:46:49;9.40;;;8.40;;
679;SDS011;322;48.846;9.230;2023-04-28T04:49:18;8.17;;;7.37;;
679;SDS011;322;48.846;9.230;2023-04-28T04:51:44;7.93;;;7.20;;
679;SDS011;322;48.846;9.230;2023-04-28T04:54:11;8.60;;;7.80;;
679;SDS011;322;48.846;9.230;2023-04-28T04:56:38;9.17;;;8.27;;
679;SDS011;322;48.846;9.230;2023-04-28T04:59:06;9.90;;;7.80;;
679;SDS011;322;48.846;9.230;2023-04-28T05:01:33;7.83;;;7.13;;
679;SDS011;322;48.846;9.230;2023-04-28T05:04:00;9.07;;;8.17;;
679;SDS011;322;48.846;9.230;2023-04-28T05:06:28;10.47;;;9.53;;
679;SDS011;322;48.846;9.230;2023-04-28T05:08:55;8.30;;;7.60;;
679;SDS011;322;48.846;9.230;2023-04-28T05:11:23;9.07;;;8.30;;
679;SDS011;322;48.846;9.230;2023-04-28T05:13:50;9.90;;;8.23;;
679;SDS011;322;48.846;9.230;2023-04-28T05:16:17;9.73;;;8.73;;
679;SDS011;322;48.846;9.230;2023-04-28T05:18:43;13.30;;;8.20;;
679;SDS011;322;48.846;9.230;2023-04-28T05:21:10;8.73;;;7.93;;
679;SDS011;322;48.846;9.230;2023-04-28T05:23:38;12.50;;;8.47;;
679;SDS011;322;48.846;9.230;2023-04-28T05:26:05;11.20;;;8.93;;
679;SDS011;322;48.846;9.230;2023-04-28T05:28:32;9.60;;;8.70;;
679;SDS011;322;48.846;9.230;2023-04-28T05:30:59;9.40;;;8.50;;
679;SDS011;322;48.846;9.230;2023-04-28T05:33:26;9.27;;;8.30;;
679;SDS011;322;48.846;9.230;2023-04-28T05:35:53;11.43;;;8.40;;
679;SDS011;322;48.846;9.230;2023-04-28T05:38:20;8.37;;;7.57;;
679;SDS011;322;48.846;9.230;2023-04-28T05:40:48;9.50;;;8.23;;
679;SDS011;322;48.846;9.230;2023-04-28T05:43:15;9.17;;;8.27;;
679;SDS011;322;48.846;9.230;2023-04-28T05:45:42;9.17;;;7.90;;
679;SDS011;322;48.846;9.230;2023-04-28T05:48:09;9.80;;;8.90;;
679;SDS011;322;48.846;9.230;2023-04-28T05:50:36;9.57;;;8.57;;
679;SDS011;322;48.846;9.230;2023-04-28T05:53:03;9.83;;;8.83;;
679;SDS011;322;48.846;9.230;2023-04-28T05:55:31;15.23;;;9.40;;
679;SDS011;322;48.846;9.230;2023-04-28T05:58:01;10.63;;;9.33;;
679;SDS011;322;48.846;9.230;2023-04-28T06:00:28;10.77;;;9.67;;
679;SDS011;322;48.846;9.230;2023-04-28T06:02:55;12.73;;;9.73;;
679;SDS011;322;48.846;9.230;2023-04-28T06:05:22;10.10;;;9.10;;
679;SDS011;322;48.846;9.230;2023-04-28T06:07:49;11.90;;;9.73;;
679;SDS011;322;48.846;9.230;2023-04-28T06:10:17;10.73;;;9.63;;
679;SDS011;322;48.846;9.230;2023-04-28T06:12:44;10.43;;;9.43;;
679;SDS011;322;48.846;9.230;2023-04-28T06:15:12;10.87;;;9.10;;
679;SDS011;322;48.846;9.230;2023-04-28T06:17:39;10.10;;;8.70;;
679;SDS011;322;48.846;9.230;2023-04-28T06:20:07;9.50;;;8.70;;
679;SDS011;322;48.846;9.230;2023-04-28T06:22:35;9.33;;;8.50;;
679;SDS011;322;48.846;9.230;2023-04-28T06:25:02;9.60;;;8.50;;
679;SDS011;322;48.846;9.230;2023-04-28T06:27:29;10.30;;;8.43;;
679;SDS011;322;48.846;9.230;2023-04-28T06:29:56;10.40;;;9.30;;
679;SDS011;322;48.846;9.230;2023-04-28T06:32:25;10.67;;;8.80;;
679;SDS011;322;48.846;9.230;2023-04-28T06:34:51;10.00;;;8.00;;
679;SDS011;322;48.846;9.230;2023-04-28T06:37:18;9.40;;;8.43;;
679;SDS011;322;48.846;9.230;2023-04-28T06:39:45;8.83;;;8.03;;
679;SDS011;322;48.846;9.230;2023-04-28T06:42:12;8.10;;;7.33;;
679;SDS011;322;48.846;9.230;2023-04-28T06:44:42;8.30;;;6.83;;
679;SDS011;322;48.846;9.230;2023-04-28T06:47:09;11.70;;;8.33;;
679;SDS011;322;48.846;9.230;2023-04-28T06:49:37;8.57;;;7.73;;
679;SDS011;322;48.846;9.230;2023-04-28T06:52:04;7.50;;;6.70;;
679;SDS011;322;48.846;9.230;2023-04-28T06:54:31;8.53;;;7.70;;
679;SDS011;322;48.846;9.230;2023-04-28T06:56:58;8.20;;;7.50;;
679;SDS011;322;48.846;9.230;2023-04-28T06:59:26;8.57;;;7.50;;
679;SDS011;322;48.846;9.230;2023-04-28T07:01:53;7.83;;;7.13;;
679;SDS011;322;48.846;9.230;2023-04-28T07:04:20;9.53;;;7.67;;
679;SDS011;322;48.846;9.230;2023-04-28T07:06:49;9.20;;;7.10;;
679;SDS011;322;48.846;9.230;2023-04-28T07:09:16;8.47;;;7.67;;
679;SDS011;322;48.846;9.230;2023-04-28T07:11:43;9.00;;;7.17;;
679;SDS011;322;48.846;9.230;2023-04-28T07:14:10;8.30;;;6.83;;
679;SDS011;322;48.846;9.230;2023-04-28T07:16:37;8.00;;;7.30;;
679;SDS011;322;48.846;9.230;2023-04-28T07:19:03;7.60;;;6.80;;
679;SDS011;322;48.846;9.230;2023-04-28T07:21:30;7.10;;;6.50;;
679;SDS011;322;48.846;9.230;2023-04-28T07:24:00;8.47;;;7.43;;
679;SDS011;322;48.846;9.230;2023-04-28T07:26:26;10.93;;;6.03;;
679;SDS011;322;48.846;9.230;2023-04-28T07:28:53;7.70;;;7.10;;
679;SDS011;322;48.846;9.230;2023-04-28T07:31:20;9.10;;;6.80;;
679;SDS011;322;48.846;9.230;2023-04-28T07:33:47;7.03;;;6.43;;
679;SDS011;322;48.846;9.230;2023-04-28T07:36:14;8.37;;;7.30;;
679;SDS011;322;48.846;9.230;2023-04-28T07:38:41;9.03;;;7.73;;
679;SDS011;322;48.846;9.230;2023-04-28T07:41:09;8.57;;;6.87;;
679;SDS011;322;48.846;9.230;2023-04-28T07:43:36;9.30;;;7.03;;
679;SDS011;322;48.846;9.230;2023-04-28T07:46:03;7.90;;;6.60;;
679;SDS011;322;48.846;9.230;2023-04-28T07:48:31;7.93;;;7.20;;
679;SDS011;322;48.846;9.230;2023-04-28T07:50:58;7.77;;;7.03;;
679;SDS011;322;48.846;9.230;2023-04-28T07:53:25;8.97;;;6.83;;
679;SDS011;322;48.846;9.230;2023-04-28T07:55:53;8.13;;;7.00;;
679;SDS011;322;48.846;9.230;2023-04-28T07:58:21;6.63;;;6.03;;
679;SDS011;322;48.846;9.230;2023-04-28T08:00:48;7.00;;;6.23;;
679;SDS011;322;48.846;9.230;2023-04-28T08:03:15;7.13;;;6.53;;
679;SDS011;322;48.846;9.230;2023-04-28T08:05:41;7.50;;;6.90;;
679;SDS011;322;48.846;9.230;2023-04-28T08:08:09;11.03;;;7.40;;
679;SDS011;322;48.846;9.230;2023-04-28T08:10:36;8.50;;;7.33;;
679;SDS011;322;48.846;9.230;2023-04-28T08:13:04;8.97;;;8.03;;
679;SDS011;322;48.846;9.230;2023-04-28T08:15:33;9.83;;;8.80;;
679;SDS011;322;48.846;9.230;2023-04-28T08:18:00;9.20;;;8.27;;
679;SDS011;322;48.846;9.230;2023-04-28T08:20:27;11.83;;;10.27;;
679;SDS011;322;48.846;9.230;2023-04-28T08:22:54;13.43;;;10.53;;
679;SDS011;322;48.846;9.230;2023-04-28T08:25:21;13.00;;;11.63;;
679;SDS011;322;48.846;9.230;2023-04-28T08:27:48;16.60;;;13.67;;
679;SDS011;322;48.846;9.230;2023-04-28T08:30:15;12.47;;;11.13;;
679;SDS011;322;48.846;9.230;2023-04-28T08:32:43;11.20;;;10.10;;
679;SDS011;322;48.846;9.230;2023-04-28T08:35:10;12.03;;;10.60;;
679;SDS011;322;48.846;9.230;2023-04-28T08:37:37;10.23;;;9.13;;
679;SDS011;322;48.846;9.230;2023-04-28T08:40:04;11.10;;;10.10;;
679;SDS011;322;48.846;9.230;2023-04-28T08:42:33;11.23;;;10.00;;
679;SDS011;322;48.846;9.230;2023-04-28T08:45:01;9.50;;;8.70;;
679;SDS011;322;48.846;9.230;2023-04-28T08:47:31;9.43;;;8.50;;
679;SDS011;322;48.846;9.230;2023-04-28T08:50:02;9.63;;;8.77;;
679;SDS011;322;48.846;9.230;2023-04-28T08:52:30;10.57;;;8.83;;
679;SDS011;322;48.846;9.230;2023-04-28T08:54:58;12.40;;;9.00;;
679;SDS011;322;48.846;9.230;2023-04-28T08:57:26;10.70;;;7.70;;
679;SDS011;322;48.846;9.230;2023-04-28T08:59:55;7.57;;;6.87;;
679;SDS011;322;48.846;9.230;2023-04-28T09:02:24;15.13;;;9.70;;
679;SDS011;322;48.846;9.230;2023-04-28T09:04:51;15.10;;;9.47;;
679;SDS011;322;48.846;9.230;2023-04-28T09:07:19;8.97;;;8.00;;
679;SDS011;322;48.846;9.230;2023-04-28T09:09:46;8.00;;;7.30;;
679;SDS011;322;48.846;9.230;2023-04-28T09:12:13;7.40;;;6.70;;
679;SDS011;322;48.846;9.230;2023-04-28T09:14:40;8.90;;;7.00;;
679;SDS011;322;48.846;9.230;2023-04-28T09:17:10;8.77;;;7.87;;
679;SDS011;322;48.846;9.230;2023-04-28T09:19:37;8.30;;;7.43;;
679;SDS011;322;48.846;9.230;2023-04-28T09:22:07;9.30;;;8.40;;
679;SDS011;322;48.846;9.230;2023-04-28T09:24:35;9.20;;;8.33;;
679;SDS011;322;48.846;9.230;2023-04-28T09:27:05;8.30;;;7.50;;
679;SDS011;322;48.846;9.230;2023-04-28T09:29:35;8.57;;;7.17;;
679;SDS011;322;48.846;9.230;2023-04-28T09:32:12;7.93;;;7.13;;
679;SDS011;322;48.846;9.230;2023-04-28T09:34:42;8.13;;;7.17;;
679;SDS011;322;48.846;9.230;2023-04-28T09:37:13;8.33;;;7.53;;
679;SDS011;322;48.846;9.230;2023-04-28T09:39:43;7.90;;;7.10;;
679;SDS011;322;48.846;9.230;2023-04-28T09:42:10;7.37;;;6.57;;
679;SDS011;322;48.846;9.230;2023-04-28T09:44:55;7.07;;;6.43;;
679;SDS011;322;48.846;9.230;2023-04-28T09:47:23;7.60;;;6.73;;
679;SDS011;322;48.846;9.230;2023-04-28T09:49:53;8.07;;;7.27;;
679;SDS011;322;48.846;9.230;2023-04-28T09:52:21;7.87;;;7.03;;
679;SDS011;322;48.846;9.230;2023-04-28T09:54:50;7.80;;;7.10;;
679;SDS011;322;48.846;9.230;2023-04-28T09:57:19;7.47;;;6.77;;
679;SDS011;322;48.846;9.230;2023-04-28T09:59:47;7.47;;;6.77;;
679;SDS011;322;48.846;9.230;2023-04-28T10:02:15;7.57;;;6.90;;
679;SDS011;322;48.846;9.230;2023-04-28T10:04:46;8.50;;;7.80;;
679;SDS011;322;48.846;9.230;2023-04-28T10:07:14;9.00;;;8.17;;
679;SDS011;322;48.846;9.230;2023-04-28T10:09:42;8.30;;;7.50;;
679;SDS011;322;48.846;9.230;2023-04-28T10:12:13;7.77;;;7.07;;
679;SDS011;322;48.846;9.230;2023-04-28T10:14:40;8.83;;;7.97;;
679;SDS011;322;48.846;9.230;2023-04-28T10:17:08;8.00;;;7.20;;
679;SDS011;322;48.846;9.230;2023-04-28T10:19:36;8.10;;;7.40;;
679;SDS011;322;48.846;9.230;2023-04-28T10:22:09;7.77;;;7.00;;
679;SDS011;322;48.846;9.230;2023-04-28T10:24:57;7.33;;;6.63;;
679;SDS011;322;48.846;9.230;2023-04-28T10:27:47;6.20;;;5.70;;
679;SDS011;322;48.846;9.230;2023-04-28T10:30:15;7.70;;;7.00;;
679;SDS011;322;48.846;9.230;2023-04-28T10:32:44;7.57;;;6.97;;
679;SDS011;322;48.846;9.230;2023-04-28T10:38:07;5.30;;;4.90;;
679;SDS011;322;48.846;9.230;2023-04-28T10:40:36;5.73;;;5.27;;
679;SDS011;322;48.846;9.230;2023-04-28T10:43:05;5.77;;;5.23;;
679;SDS011;322;48.846;9.230;2023-04-28T10:51:28;7.43;;;5.63;;
679;SDS011;322;48.846;9.230;2023-04-28T10:54:09;6.33;;;5.77;;
679;SDS011;322;48.846;9.230;2023-04-28T11:00:25;6.90;;;6.30;;
679;SDS011;322;48.846;9.230;2023-04-28T11:02:54;7.10;;;6.40;;
679;SDS011;322;48.846;9.230;2023-04-28T11:05:21;6.80;;;6.17;;
679;SDS011;322;48.846;9.230;2023-04-28T11:13:54;9.03;;;6.67;;
679;SDS011;322;48.846;9.230;2023-04-28T11:16:48;3.93;;;3.63;;
679;SDS011;322;48.846;9.230;2023-04-28T11:19:17;3.93;;;3.37;;
679;SDS011;322;48.846;9.230;2023-04-28T11:21:48;2.67;;;2.47;;
679;SDS011;322;48.846;9.230;2023-04-28T11:24:16;1.80;;;1.30;;
679;SDS011;322;48.846;9.230;2023-04-28T11:26:44;1.77;;;0.90;;
679;SDS011;322;48.846;9.230;2023-04-28T11:29:11;0.70;;;0.60;;
679;SDS011;322;48.846;9.230;2023-04-28T11:31:39;1.10;;;0.63;;
679;SDS011;322;48.846;9.230;2023-04-28T11:34:09;1.40;;;0.67;;
679;SDS011;322;48.846;9.230;2023-04-28T11:36:38;2.17;;;0.87;;
679;SDS011;322;48.846;9.230;2023-04-28T11:39:07;1.97;;;0.87;;
679;SDS011;322;48.846;9.230;2023-04-28T11:41:35;0.80;;;0.63;;
679;SDS011;322;48.846;9.230;2023-04-28T11:44:09;1.10;;;1.00;;
679;SDS011;322;48.846;9.230;2023-04-28T11:46:43;0.97;;;0.87;;
679;SDS011;322;48.846;9.230;2023-04-28T11:49:15;1.57;;;1.00;;
679;SDS011;322;48.846;9.230;2023-04-28T11:51:43;1.27;;;0.60;;
679;SDS011;322;48.846;9.230;2023-04-28T11:54:12;2.10;;;0.93;;
679;SDS011;322;48.846;9.230;2023-04-28T11:56:40;3.03;;;0.83;;
679;SDS011;322;48.846;9.230;2023-04-28T11:59:09;2.53;;;1.00;;
679;SDS011;322;48.846;9.230;2023-04-28T12:01:44;1.50;;;0.90;;
679;SDS011;322;48.846;9.230;2023-04-28T12:04:12;1.07;;;0.93;;
679;SDS011;322;48.846;9.230;2023-04-28T12:06:40;0.93;;;0.87;;
679;SDS011;322;48.846;9.230;2023-04-28T12:09:17;1.00;;;0.87;;
679;SDS011;322;48.846;9.230;2023-04-28T12:11:52;1.83;;;0.80;;
679;SDS011;322;48.846;9.230;2023-04-28T12:14:21;1.33;;;1.23;;
679;SDS011;322;48.846;9.230;2023-04-28T12:16:48;2.33;;;1.07;;
679;SDS011;322;48.846;9.230;2023-04-28T12:19:15;3.53;;;1.97;;
679;SDS011;322;48.846;9.230;2023-04-28T12:21:57;2.70;;;1.93;;
679;SDS011;322;48.846;9.230;2023-04-28T12:24:25;2.27;;;2.07;;
679;SDS011;322;48.846;9.230;2023-04-28T12:26:52;3.90;;;2.30;;
679;SDS011;322;48.846;9.230;2023-04-28T12:29:35;1.50;;;1.40;;
679;SDS011;322;48.846;9.230;2023-04-28T12:32:04;4.80;;;2.10;;
679;SDS011;322;48.846;9.230;2023-04-28T12:34:31;2.80;;;2.60;;
679;SDS011;322;48.846;9.230;2023-04-28T12:37:00;2.70;;;2.50;;
679;SDS011;322;48.846;9.230;2023-04-28T12:39:29;2.30;;;2.10;;
679;SDS011;322;48.846;9.230;2023-04-28T12:41:56;2.63;;;2.40;;
679;SDS011;322;48.846;9.230;2023-04-28T12:44:24;2.17;;;1.53;;
679;SDS011;322;48.846;9.230;2023-04-28T12:46:52;1.07;;;0.80;;
679;SDS011;322;48.846;9.230;2023-04-28T12:49:19;3.30;;;0.90;;
679;SDS011;322;48.846;9.230;2023-04-28T12:51:47;0.70;;;0.70;;
679;SDS011;322;48.846;9.230;2023-04-28T12:54:15;2.90;;;1.40;;
679;SDS011;322;48.846;9.230;2023-04-28T12:56:41;1.60;;;0.93;;
679;SDS011;322;48.846;9.230;2023-04-28T12:59:08;0.80;;;0.60;;
679;SDS011;322;48.846;9.230;2023-04-28T13:01:35;0.87;;;0.67;;
679;SDS011;322;48.846;9.230;2023-04-28T13:04:02;2.30;;;1.53;;
679;SDS011;322;48.846;9.230;2023-04-28T13:06:29;1.47;;;0.50;;
679;SDS011;322;48.846;9.230;2023-04-28T13:08:57;1.93;;;0.83;;
679;SDS011;322;48.846;9.230;2023-04-28T13:11:25;1.40;;;0.60;;
679;SDS011;322;48.846;9.230;2023-04-28T13:13:52;1.60;;;0.80;;
679;SDS011;322;48.846;9.230;2023-04-28T13:16:21;2.70;;;0.90;;
679;SDS011;322;48.846;9.230;2023-04-28T13:18:52;1.03;;;0.57;;
679;SDS011;322;48.846;9.230;2023-04-28T13:21:20;1.40;;;0.90;;
679;SDS011;322;48.846;9.230;2023-04-28T13:23:47;1.60;;;1.10;;
679;SDS011;322;48.846;9.230;2023-04-28T13:26:14;1.33;;;0.73;;
679;SDS011;322;48.846;9.230;2023-04-28T13:28:45;2.20;;;1.30;;
679;SDS011;322;48.846;9.230;2023-04-28T13:31:12;1.20;;;1.10;;
679;SDS011;322;48.846;9.230;2023-04-28T13:33:39;1.00;;;0.77;;
679;SDS011;322;48.846;9.230;2023-04-28T13:36:06;2.30;;;0.90;;
679;SDS011;322;48.846;9.230;2023-04-28T13:38:34;1.77;;;0.70;;
679;SDS011;322;48.846;9.230;2023-04-28T13:41:01;3.47;;;1.07;;
679;SDS011;322;48.846;9.230;2023-04-28T13:43:28;3.07;;;1.00;;
679;SDS011;322;48.846;9.230;2023-04-28T13:45:56;1.67;;;0.80;;
679;SDS011;322;48.846;9.230;2023-04-28T13:48:23;0.87;;;0.60;;
679;SDS011;322;48.846;9.230;2023-04-28T13:50:51;1.23;;;0.97;;
679;SDS011;322;48.846;9.230;2023-04-28T13:53:18;1.67;;;0.97;;
679;SDS011;322;48.846;9.230;2023-04-28T13:55:45;2.03;;;0.90;;
679;SDS011;322;48.846;9.230;2023-04-28T13:58:14;3.13;;;1.00;;
679;SDS011;322;48.846;9.230;2023-04-28T14:00:40;7.40;;;3.03;;
679;SDS011;322;48.846;9.230;2023-04-28T14:03:09;2.60;;;1.27;;
679;SDS011;322;48.846;9.230;2023-04-28T14:05:36;4.13;;;1.40;;
679;SDS011;322;48.846;9.230;2023-04-28T14:08:03;2.07;;;1.47;;
679;SDS011;322;48.846;9.230;2023-04-28T14:10:30;1.90;;;1.00;;
679;SDS011;322;48.846;9.230;2023-04-28T14:12:57;2.23;;;1.00;;
679;SDS011;322;48.846;9.230;2023-04-28T14:15:23;2.30;;;0.93;;
679;SDS011;322;48.846;9.230;2023-04-28T14:17:50;2.57;;;1.17;;
679;SDS011;322;48.846;9.230;2023-04-28T14:20:19;3.13;;;1.73;;
679;SDS011;322;48.846;9.230;2023-04-28T14:22:45;1.10;;;0.87;;
679;SDS011;322;48.846;9.230;2023-04-28T14:25:12;2.07;;;1.30;;
679;SDS011;322;48.846;9.230;2023-04-28T14:27:39;3.50;;;1.50;;
679;SDS011;322;48.846;9.230;2023-04-28T14:30:06;2.93;;;1.20;;
679;SDS011;322;48.846;9.230;2023-04-28T14:32:34;1.93;;;1.30;;
679;SDS011;322;48.846;9.230;2023-04-28T14:35:02;1.33;;;1.00;;
679;SDS011;322;48.846;9.230;2023-04-28T14:37:31;2.70;;;0.90;;
679;SDS011;322;48.846;9.230;2023-04-28T14:39:59;6.03;;;1.50;;
679;SDS011;322;48.846;9.230;2023-04-28T14:42:26;2.30;;;1.23;;
679;SDS011;322;48.846;9.230;2023-04-28T14:44:54;1.40;;;1.20;;
679;SDS011;322;48.846;9.230;2023-04-28T14:47:21;4.23;;;2.30;;
679;SDS011;322;48.846;9.230;2023-04-28T14:49:48;1.97;;;1.50;;
679;SDS011;322;48.846;9.230;2023-04-28T14:52:17;1.60;;;1.20;;
679;SDS011;322;48.846;9.230;2023-04-28T14:54:45;4.50;;;2.13;;
679;SDS011;322;48.846;9.230;2023-04-28T14:57:12;1.40;;;1.20;;
679;SDS011;322;48.846;9.230;2023-04-28T14:59:39;3.23;;;1.73;;
679;SDS011;322;48.846;9.230;2023-04-28T15:02:06;3.53;;;1.70;;
679;SDS011;322;48.846;9.230;2023-04-28T15:04:34;4.47;;;1.60;;
679;SDS011;322;48.846;9.230;2023-04-28T15:07:01;2.37;;;1.67;;
679;SDS011;322;48.846;9.230;2023-04-28T15:09:28;2.83;;;1.50;;
679;SDS011;322;48.846;9.230;2023-04-28T15:11:56;2.40;;;1.43;;
679;SDS011;322;48.846;9.230;2023-04-28T15:14:23;3.83;;;1.93;;
679;SDS011;322;48.846;9.230;2023-04-28T15:16:50;3.57;;;1.80;;
679;SDS011;322;48.846;9.230;2023-04-28T15:19:17;2.13;;;1.83;;
679;SDS011;322;48.846;9.230;2023-04-28T15:21:44;8.40;;;2.27;;
679;SDS011;322;48.846;9.230;2023-04-28T15:24:11;2.80;;;1.83;;
679;SDS011;322;48.846;9.230;2023-04-28T15:26:39;2.40;;;1.90;;
679;SDS011;322;48.846;9.230;2023-04-28T15:29:07;2.30;;;1.83;;
679;SDS011;322;48.846;9.230;2023-04-28T15:31:35;3.40;;;2.10;;
679;SDS011;322;48.846;9.230;2023-04-28T15:34:04;3.90;;;2.77;;
679;SDS011;322;48.846;9.230;2023-04-28T15:36:30;4.50;;;2.40;;
679;SDS011;322;48.846;9.230;2023-04-28T15:39:03;3.40;;;2.50;;
679;SDS011;322;48.846;9.230;2023-04-28T15:41:31;4.67;;;3.67;;
679;SDS011;322;48.846;9.230;2023-04-28T15:43:58;6.10;;;3.13;;
679;SDS011;322;48.846;9.230;2023-04-28T15:46:27;2.53;;;2.33;;
679;SDS011;322;48.846;9.230;2023-04-28T15:48:54;4.90;;;2.70;;
679;SDS011;322;48.846;9.230;2023-04-28T15:51:22;2.70;;;2.10;;
679;SDS011;322;48.846;9.230;2023-04-28T15:53:49;3.00;;;2.20;;
679;SDS011;322;48.846;9.230;2023-04-28T15:56:16;1.90;;;1.70;;
679;SDS011;322;48.846;9.230;2023-04-28T15:58:43;3.50;;;1.60;;
679;SDS011;322;48.846;9.230;2023-04-28T16:01:10;2.90;;;2.00;;
679;SDS011;322;48.846;9.230;2023-04-28T16:03:38;2.07;;;1.33;;
679;SDS011;322;48.846;9.230;2023-04-28T16:06:05;1.40;;;1.10;;
679;SDS011;322;48.846;9.230;2023-04-28T16:08:32;2.43;;;1.10;;